createdAt,value
2018-05-15T00:00:01.385Z,6.60
2018-05-15T00:01:01.538Z,5.10
2018-05-15T00:02:01.691Z,5.80
2018-05-15T00:03:01.849Z,6.90
2018-05-15T00:04:02.011Z,6.20
2018-05-15T00:05:02.160Z,5.30
2018-05-15T00:06:02.320Z,6.70
2018-05-15T00:07:02.453Z,5.40
2018-05-15T00:08:02.604Z,4.70
2018-05-15T00:09:02.759Z,7.20
2018-05-15T00:10:02.914Z,7.50
2018-05-15T00:11:03.070Z,6.80
2018-05-15T00:12:03.223Z,6.50
2018-05-15T00:13:03.377Z,4.80
2018-05-15T00:14:03.533Z,8.90
2018-05-15T00:15:03.684Z,7.80
2018-05-15T00:16:03.840Z,5.20
2018-05-15T00:17:03.995Z,6.00
2018-05-15T00:18:04.148Z,7.40
2018-05-15T00:19:04.303Z,11.70
2018-05-15T00:20:04.456Z,9.60
2018-05-15T00:21:04.613Z,8.60
2018-05-15T00:22:04.766Z,8.10
2018-05-15T00:23:04.919Z,8.20
2018-05-15T00:24:05.075Z,9.00
2018-05-15T00:25:05.227Z,9.30
2018-05-15T00:26:05.380Z,10.50
2018-05-15T00:27:05.535Z,11.50
2018-05-15T00:28:05.692Z,11.30
2018-05-15T00:29:05.847Z,13.80
2018-05-15T00:30:05.998Z,12.20
2018-05-15T00:31:06.154Z,10.40
2018-05-15T00:32:06.311Z,9.70
2018-05-15T00:33:06.462Z,9.00
2018-05-15T00:34:06.616Z,9.50
2018-05-15T00:35:06.770Z,7.50
2018-05-15T00:36:06.923Z,8.70
2018-05-15T00:37:07.079Z,8.90
2018-05-15T00:38:07.232Z,7.70
2018-05-15T00:39:07.384Z,7.60
2018-05-15T00:40:07.538Z,8.90
2018-05-15T00:41:07.692Z,13.70
2018-05-15T00:42:07.844Z,15.20
2018-05-15T00:43:08.003Z,13.70
2018-05-15T00:44:08.166Z,8.50
2018-05-15T00:45:08.308Z,8.90
2018-05-15T00:46:08.462Z,9.40
2018-05-15T00:47:08.615Z,8.20
2018-05-15T00:48:08.767Z,10.80
2018-05-15T00:49:08.919Z,6.60
2018-05-15T00:50:09.072Z,7.40
2018-05-15T00:51:09.225Z,7.50
2018-05-15T00:52:09.380Z,7.60
2018-05-15T00:53:09.532Z,7.70
2018-05-15T00:54:09.686Z,11.90
2018-05-15T00:55:09.842Z,11.90
2018-05-15T00:56:09.996Z,13.30
2018-05-15T00:57:10.146Z,13.20
2018-05-15T00:58:10.300Z,13.20
2018-05-15T00:59:10.454Z,11.50
2018-05-15T01:00:10.606Z,11.00
2018-05-15T01:01:10.763Z,11.00
2018-05-15T01:02:10.916Z,12.80
2018-05-15T01:03:11.075Z,13.60
2018-05-15T01:04:11.220Z,11.90
2018-05-15T01:05:11.377Z,10.50
2018-05-15T01:06:11.527Z,9.40
2018-05-15T01:07:11.680Z,7.60
2018-05-15T01:08:11.835Z,9.50
2018-05-15T01:09:11.986Z,7.90
2018-05-15T01:10:12.144Z,9.00
2018-05-15T01:11:12.295Z,7.50
2018-05-15T01:12:12.449Z,10.40
2018-05-15T01:13:12.605Z,10.00
2018-05-15T01:14:12.755Z,8.80
2018-05-15T01:15:12.909Z,7.50
2018-05-15T01:16:13.062Z,8.10
2018-05-15T01:17:13.214Z,7.00
2018-05-15T01:18:13.368Z,8.70
2018-05-15T01:19:13.518Z,7.60
2018-05-15T01:20:13.673Z,9.70
2018-05-15T01:21:13.827Z,10.30
2018-05-15T01:22:13.981Z,9.20
2018-05-15T01:23:14.134Z,11.00
2018-05-15T01:24:14.286Z,9.30
2018-05-15T01:25:14.440Z,9.80
2018-05-15T01:26:14.591Z,11.10
2018-05-15T01:27:14.744Z,11.20
2018-05-15T01:28:14.902Z,12.10
2018-05-15T01:29:15.050Z,9.40
2018-05-15T01:30:15.203Z,10.60
2018-05-15T01:31:15.355Z,12.40
2018-05-15T01:32:15.511Z,10.20
2018-05-15T01:33:15.663Z,10.10
2018-05-15T01:34:15.816Z,11.90
2018-05-15T01:35:15.970Z,12.10
2018-05-15T01:36:16.125Z,10.50
2018-05-15T01:37:16.277Z,12.10
2018-05-15T01:38:16.432Z,10.50
2018-05-15T01:39:16.585Z,8.50
2018-05-15T01:40:16.738Z,9.20
2018-05-15T01:41:16.892Z,8.90
2018-05-15T01:42:17.045Z,6.90
2018-05-15T01:43:17.200Z,9.70
2018-05-15T01:44:17.352Z,5.60
2018-05-15T01:45:17.505Z,6.40
2018-05-15T01:46:17.658Z,8.00
2018-05-15T01:47:17.813Z,5.90
2018-05-15T01:48:17.964Z,8.10
2018-05-15T01:49:18.118Z,6.10
2018-05-15T01:50:18.272Z,11.10
2018-05-15T01:51:18.428Z,7.80
2018-05-15T01:52:18.580Z,10.90
2018-05-15T01:53:18.737Z,10.30
2018-05-15T01:54:18.887Z,9.40
2018-05-15T01:55:19.041Z,9.70
2018-05-15T01:56:19.193Z,10.80
2018-05-15T01:57:19.344Z,9.30
2018-05-15T01:58:19.499Z,10.70
2018-05-15T01:59:19.650Z,10.00
2018-05-15T02:00:19.805Z,8.20
2018-05-15T02:01:19.956Z,7.60
2018-05-15T02:02:20.113Z,12.10
2018-05-15T02:03:20.266Z,9.80
2018-05-15T02:04:20.420Z,8.40
2018-05-15T02:05:20.576Z,9.40
2018-05-15T02:06:20.726Z,10.80
2018-05-15T02:07:20.878Z,9.00
2018-05-15T02:08:21.032Z,8.10
2018-05-15T02:09:21.184Z,9.70
2018-05-15T02:10:21.337Z,9.10
2018-05-15T02:11:21.489Z,8.00
2018-05-15T02:12:21.643Z,8.20
2018-05-15T02:13:21.797Z,10.20
2018-05-15T02:14:21.951Z,9.00
2018-05-15T02:15:22.106Z,12.00
2018-05-15T02:16:22.259Z,9.20
2018-05-15T02:17:22.412Z,7.20
2018-05-15T02:18:22.567Z,12.00
2018-05-15T02:19:22.719Z,10.70
2018-05-15T02:20:22.871Z,11.80
2018-05-15T02:21:23.025Z,8.90
2018-05-15T02:22:23.176Z,10.40
2018-05-15T02:23:23.334Z,10.70
2018-05-15T02:24:23.488Z,11.40
2018-05-15T02:25:23.644Z,11.20
2018-05-15T02:26:23.796Z,13.10
2018-05-15T02:27:23.945Z,11.40
2018-05-15T02:28:24.099Z,11.10
2018-05-15T02:29:24.253Z,13.00
2018-05-15T02:30:24.483Z,11.40
2018-05-15T02:31:24.561Z,11.00
2018-05-15T02:32:24.713Z,11.00
2018-05-15T02:33:24.867Z,13.30
2018-05-15T02:34:25.023Z,12.00
2018-05-15T02:35:25.171Z,10.60
2018-05-15T02:36:25.325Z,11.30
2018-05-15T02:37:25.479Z,11.60
2018-05-15T02:38:25.633Z,12.70
2018-05-15T02:39:25.789Z,12.40
2018-05-15T02:40:25.940Z,10.80
2018-05-15T02:41:26.096Z,14.40
2018-05-15T02:42:26.246Z,9.60
2018-05-15T02:43:26.404Z,8.40
2018-05-15T02:44:26.561Z,8.70
2018-05-15T02:45:26.727Z,6.60
2018-05-15T02:46:26.878Z,6.50
2018-05-15T02:47:27.031Z,5.30
2018-05-15T02:48:27.183Z,6.70
2018-05-15T02:49:27.342Z,9.20
2018-05-15T02:50:27.491Z,12.40
2018-05-15T02:51:27.641Z,13.30
2018-05-15T02:52:27.796Z,13.30
2018-05-15T02:53:27.950Z,11.60
2018-05-15T02:54:28.104Z,11.60
2018-05-15T02:55:28.257Z,13.30
2018-05-15T02:56:28.410Z,11.30
2018-05-15T02:57:28.564Z,12.20
2018-05-15T02:58:28.720Z,8.70
2018-05-15T02:59:28.871Z,8.90
2018-05-15T03:00:29.027Z,12.00
2018-05-15T03:01:29.177Z,12.10
2018-05-15T03:02:29.331Z,9.50
2018-05-15T03:03:29.482Z,11.40
2018-05-15T03:04:29.636Z,11.90
2018-05-15T03:05:29.793Z,10.30
2018-05-15T03:06:29.943Z,10.60
2018-05-15T03:07:30.095Z,8.30
2018-05-15T03:08:30.250Z,10.40
2018-05-15T03:09:30.408Z,9.60
2018-05-15T03:10:30.560Z,9.70
2018-05-15T03:11:30.751Z,10.20
2018-05-15T03:12:30.867Z,9.60
2018-05-15T03:13:31.029Z,7.20
2018-05-15T03:14:31.181Z,9.70
2018-05-15T03:15:31.329Z,7.10
2018-05-15T03:16:31.485Z,6.60
2018-05-15T03:17:31.637Z,6.00
2018-05-15T03:18:31.792Z,10.10
2018-05-15T03:19:31.945Z,6.70
2018-05-15T03:20:32.098Z,7.20
2018-05-15T03:21:32.257Z,7.50
2018-05-15T03:22:32.407Z,6.30
2018-05-15T03:23:32.559Z,6.30
2018-05-15T03:24:32.713Z,5.80
2018-05-15T03:25:32.872Z,8.10
2018-05-15T03:26:33.025Z,6.90
2018-05-15T03:27:33.178Z,9.10
2018-05-15T03:28:33.331Z,8.00
2018-05-15T03:29:33.483Z,5.70
2018-05-15T03:30:33.636Z,8.00
2018-05-15T03:31:33.791Z,9.70
2018-05-15T03:32:33.943Z,9.50
2018-05-15T03:33:34.094Z,9.50
2018-05-15T03:34:34.245Z,11.90
2018-05-15T03:35:34.401Z,16.00
2018-05-15T03:36:34.552Z,9.80
2018-05-15T03:37:34.704Z,7.20
2018-05-15T03:38:34.857Z,6.70
2018-05-15T03:39:35.009Z,7.00
2018-05-15T03:40:35.161Z,7.60
2018-05-15T03:41:35.314Z,8.30
2018-05-15T03:42:35.467Z,5.70
2018-05-15T03:43:35.620Z,5.70
2018-05-15T03:44:35.773Z,5.80
2018-05-15T03:45:35.928Z,6.80
2018-05-15T03:46:36.082Z,7.30
2018-05-15T03:47:36.237Z,7.20
2018-05-15T03:48:36.387Z,6.80
2018-05-15T03:49:36.537Z,7.00
2018-05-15T03:50:36.690Z,8.10
2018-05-15T03:51:36.845Z,7.60
2018-05-15T03:52:37.000Z,6.10
2018-05-15T03:53:37.153Z,10.10
2018-05-15T03:54:37.307Z,8.80
2018-05-15T03:55:37.460Z,10.40
2018-05-15T03:56:37.613Z,8.60
2018-05-15T03:57:37.766Z,7.00
2018-05-15T03:58:37.918Z,6.70
2018-05-15T03:59:38.071Z,8.70
2018-05-15T04:00:38.224Z,8.30
2018-05-15T04:01:38.380Z,11.30
2018-05-15T04:02:38.533Z,7.20
2018-05-15T04:03:38.690Z,7.20
2018-05-15T04:04:38.837Z,6.40
2018-05-15T04:05:38.998Z,6.00
2018-05-15T04:06:39.143Z,8.70
2018-05-15T04:07:39.297Z,7.40
2018-05-15T04:08:39.526Z,7.00
2018-05-15T04:09:39.606Z,5.50
2018-05-15T04:10:39.759Z,6.50
2018-05-15T04:11:39.911Z,6.50
2018-05-15T04:12:40.064Z,6.40
2018-05-15T04:13:40.220Z,5.80
2018-05-15T04:14:40.371Z,5.30
2018-05-15T04:15:40.525Z,6.60
2018-05-15T04:16:40.679Z,6.80
2018-05-15T04:17:40.830Z,5.80
2018-05-15T04:18:40.984Z,7.30
2018-05-15T04:19:41.139Z,6.40
2018-05-15T04:20:41.294Z,6.10
2018-05-15T04:21:41.446Z,10.00
2018-05-15T04:22:41.598Z,8.10
2018-05-15T04:23:41.750Z,8.30
2018-05-15T04:24:41.904Z,10.10
2018-05-15T04:25:42.057Z,7.80
2018-05-15T04:26:42.214Z,6.70
2018-05-15T04:27:42.366Z,7.80
2018-05-15T04:28:42.519Z,8.90
2018-05-15T04:29:42.675Z,7.40
2018-05-15T04:30:42.825Z,5.60
2018-05-15T04:31:42.978Z,6.60
2018-05-15T04:32:43.131Z,6.20
2018-05-15T04:33:43.283Z,8.70
2018-05-15T04:34:43.437Z,8.70
2018-05-15T04:35:43.592Z,7.10
2018-05-15T04:36:43.745Z,7.20
2018-05-15T04:37:43.897Z,6.50
2018-05-15T04:38:44.054Z,7.40
2018-05-15T04:39:44.205Z,7.80
2018-05-15T04:40:44.357Z,7.10
2018-05-15T04:41:44.511Z,6.90
2018-05-15T04:42:44.666Z,5.60
2018-05-15T04:43:44.875Z,8.20
2018-05-15T04:44:44.972Z,6.30
2018-05-15T04:45:45.125Z,6.60
2018-05-15T04:46:45.285Z,5.90
2018-05-15T04:47:45.438Z,8.60
2018-05-15T04:48:45.590Z,9.20
2018-05-15T04:49:45.741Z,9.10
2018-05-15T04:50:45.896Z,11.10
2018-05-15T04:51:46.055Z,13.60
2018-05-15T04:52:46.203Z,11.10
2018-05-15T04:53:46.359Z,12.10
2018-05-15T04:54:46.518Z,13.90
2018-05-15T04:55:46.698Z,9.50
2018-05-15T04:56:46.818Z,12.70
2018-05-15T04:57:46.974Z,9.80
2018-05-15T04:58:47.127Z,10.80
2018-05-15T04:59:47.278Z,10.60
2018-05-15T05:00:47.432Z,14.90
2018-05-15T05:01:47.587Z,13.10
2018-05-15T05:02:47.742Z,12.30
2018-05-15T05:03:47.895Z,9.30
2018-05-15T05:04:48.049Z,9.70
2018-05-15T05:05:48.204Z,11.50
2018-05-15T05:06:48.357Z,10.80
2018-05-15T05:07:48.513Z,9.30
2018-05-15T05:08:48.664Z,9.10
2018-05-15T05:09:48.820Z,8.70
2018-05-15T05:10:48.974Z,7.90
2018-05-15T05:11:49.162Z,9.60
2018-05-15T05:12:49.281Z,7.60
2018-05-15T05:13:49.439Z,10.60
2018-05-15T05:14:49.589Z,11.70
2018-05-15T05:15:49.742Z,12.50
2018-05-15T05:16:49.925Z,14.40
2018-05-15T05:17:50.046Z,9.40
2018-05-15T05:18:50.199Z,8.80
2018-05-15T05:19:50.430Z,6.90
2018-05-15T05:20:50.509Z,6.70
2018-05-15T05:21:50.666Z,6.40
2018-05-15T05:22:50.829Z,8.10
2018-05-15T05:23:50.971Z,7.50
2018-05-15T05:24:51.124Z,6.30
2018-05-15T05:25:51.278Z,6.80
2018-05-15T05:26:51.432Z,6.50
2018-05-15T05:27:51.634Z,7.50
2018-05-15T05:28:51.742Z,7.00
2018-05-15T05:29:51.897Z,7.50
2018-05-15T05:30:52.048Z,6.50
2018-05-15T05:31:52.205Z,7.10
2018-05-15T05:32:52.360Z,6.40
2018-05-15T05:33:52.511Z,6.70
2018-05-15T05:34:52.666Z,8.90
2018-05-15T05:35:52.822Z,9.10
2018-05-15T05:36:52.976Z,7.80
2018-05-15T05:37:53.128Z,7.10
2018-05-15T05:38:53.284Z,6.70
2018-05-15T05:39:53.443Z,6.20
2018-05-15T05:40:53.592Z,11.30
2018-05-15T05:41:53.752Z,8.10
2018-05-15T05:42:53.902Z,7.60
2018-05-15T05:43:54.054Z,5.70
2018-05-15T05:44:54.209Z,7.00
2018-05-15T05:45:54.367Z,7.20
2018-05-15T05:46:54.521Z,9.50
2018-05-15T05:47:54.678Z,5.90
2018-05-15T05:48:54.831Z,6.20
2018-05-15T05:49:54.983Z,6.50
2018-05-15T05:50:55.139Z,6.70
2018-05-15T05:51:55.298Z,7.70
2018-05-15T05:52:55.451Z,9.00
2018-05-15T05:53:55.603Z,9.20
2018-05-15T05:54:55.759Z,8.60
2018-05-15T05:55:55.913Z,8.70
2018-05-15T05:56:56.070Z,9.70
2018-05-15T05:57:56.223Z,10.30
2018-05-15T05:58:56.379Z,9.00
2018-05-15T05:59:56.533Z,10.40
2018-05-15T06:00:56.687Z,8.90
2018-05-15T06:01:56.842Z,6.80
2018-05-15T06:02:56.997Z,6.40
2018-05-15T06:03:57.152Z,10.10
2018-05-15T06:04:57.307Z,7.20
2018-05-15T06:05:57.466Z,7.80
2018-05-15T06:06:57.618Z,7.90
2018-05-15T06:07:57.771Z,10.00
2018-05-15T06:08:57.928Z,10.80
2018-05-15T06:09:58.083Z,11.70
2018-05-15T06:10:58.238Z,11.60
2018-05-15T06:11:58.393Z,10.80
2018-05-15T06:12:58.549Z,9.60
2018-05-15T06:13:58.706Z,8.80
2018-05-15T06:14:58.859Z,9.80
2018-05-15T06:15:59.014Z,8.40
2018-05-15T06:16:59.170Z,7.50
2018-05-15T06:17:59.324Z,7.40
2018-05-15T06:18:59.486Z,10.70
2018-05-15T06:19:59.637Z,9.80
2018-05-15T06:20:59.827Z,10.20
2018-05-15T06:21:59.947Z,9.50
2018-05-15T06:23:00.100Z,10.10
2018-05-15T06:24:00.256Z,10.80
2018-05-15T06:25:00.410Z,9.60
2018-05-15T06:26:00.565Z,7.70
2018-05-15T06:27:00.721Z,9.40
2018-05-15T06:28:00.879Z,10.90
2018-05-15T06:29:01.035Z,11.20
2018-05-15T06:30:01.190Z,11.20
2018-05-15T06:31:01.345Z,11.20
2018-05-15T06:32:01.503Z,8.20
2018-05-15T06:33:01.658Z,9.20
2018-05-15T06:34:01.818Z,9.50
2018-05-15T06:35:01.969Z,7.20
2018-05-15T06:36:02.127Z,6.70
2018-05-15T06:37:02.281Z,7.40
2018-05-15T06:38:02.438Z,6.50
2018-05-15T06:39:02.592Z,6.50
2018-05-15T06:40:02.748Z,6.80
2018-05-15T06:41:02.902Z,7.50
2018-05-15T06:42:03.059Z,6.10
2018-05-15T06:43:03.214Z,6.10
2018-05-15T06:44:03.368Z,7.70
2018-05-15T06:45:03.525Z,6.20
2018-05-15T06:46:03.678Z,6.60
2018-05-15T06:47:03.834Z,7.80
2018-05-15T06:48:03.990Z,7.90
2018-05-15T06:49:04.145Z,6.90
2018-05-15T06:50:04.300Z,6.70
2018-05-15T06:51:04.457Z,8.60
2018-05-15T06:52:04.612Z,8.00
2018-05-15T06:53:04.769Z,7.40
2018-05-15T06:54:04.925Z,9.10
2018-05-15T06:55:05.082Z,8.10
2018-05-15T06:56:05.237Z,7.30
2018-05-15T06:57:05.393Z,8.50
2018-05-15T06:58:05.550Z,6.40
2018-05-15T06:59:05.705Z,7.60
2018-05-15T07:00:05.863Z,7.10
2018-05-15T07:01:06.016Z,6.90
2018-05-15T07:02:06.175Z,6.70
2018-05-15T07:03:06.330Z,6.00
2018-05-15T07:04:06.487Z,6.10
2018-05-15T07:05:06.645Z,6.70
2018-05-15T07:06:06.800Z,7.80
2018-05-15T07:07:06.955Z,5.90
2018-05-15T07:08:07.113Z,6.80
2018-05-15T07:09:07.267Z,6.00
2018-05-15T07:10:07.422Z,5.70
2018-05-15T07:11:07.582Z,7.70
2018-05-15T07:12:07.735Z,6.20
2018-05-15T07:13:07.892Z,6.50
2018-05-15T07:14:08.140Z,9.30
2018-05-15T07:15:08.203Z,7.30
2018-05-15T07:16:08.360Z,7.90
2018-05-15T07:17:08.516Z,9.30
2018-05-15T07:18:08.673Z,7.30
2018-05-15T07:19:08.831Z,8.20
2018-05-15T07:20:08.986Z,5.80
2018-05-15T07:21:09.142Z,6.50
2018-05-15T07:22:09.298Z,6.40
2018-05-15T07:23:09.456Z,4.80
2018-05-15T07:24:09.612Z,5.40
2018-05-15T07:25:09.769Z,8.30
2018-05-15T07:26:09.923Z,5.20
2018-05-15T07:27:10.079Z,4.70
2018-05-15T07:28:10.237Z,7.20
2018-05-15T07:29:10.395Z,6.90
2018-05-15T07:30:10.553Z,8.50
2018-05-15T07:31:10.710Z,5.40
2018-05-15T07:32:10.866Z,5.50
2018-05-15T07:33:11.034Z,5.90
2018-05-15T07:34:11.179Z,5.70
2018-05-15T07:35:11.335Z,7.00
2018-05-15T07:36:11.490Z,5.80
2018-05-15T07:37:11.648Z,5.90
2018-05-15T07:38:11.803Z,6.80
2018-05-15T07:39:11.958Z,4.80
2018-05-15T07:40:12.202Z,5.50
2018-05-15T07:41:12.273Z,6.00
2018-05-15T07:42:12.431Z,6.90
2018-05-15T07:43:12.587Z,7.00
2018-05-15T07:44:12.748Z,5.30
2018-05-15T07:45:12.901Z,8.20
2018-05-15T07:46:13.060Z,5.40
2018-05-15T07:47:13.215Z,8.30
2018-05-15T07:48:13.413Z,5.10
2018-05-15T07:49:13.530Z,4.40
2018-05-15T07:50:13.690Z,4.60
2018-05-15T07:51:13.843Z,6.30
2018-05-15T07:52:14.000Z,5.20
2018-05-15T07:53:14.156Z,4.80
2018-05-15T07:54:14.317Z,8.70
2018-05-15T07:55:14.469Z,15.20
2018-05-15T07:56:14.635Z,9.80
2018-05-15T07:57:14.784Z,7.50
2018-05-15T07:58:14.945Z,6.70
2018-05-15T07:59:15.099Z,5.50
2018-05-15T08:00:15.258Z,6.20
2018-05-15T08:01:15.414Z,7.10
2018-05-15T08:02:15.573Z,5.60
2018-05-15T08:03:15.734Z,5.70
2018-05-15T08:04:15.889Z,4.90
2018-05-15T08:05:16.046Z,6.70
2018-05-15T08:06:16.204Z,6.90
2018-05-15T08:07:16.361Z,5.60
2018-05-15T08:08:16.518Z,9.40
2018-05-15T08:09:16.677Z,8.00
2018-05-15T08:10:16.836Z,6.60
2018-05-15T08:11:16.996Z,5.50
2018-05-15T08:12:17.151Z,8.60
2018-05-15T08:13:17.309Z,9.80
2018-05-15T08:14:17.465Z,6.10
2018-05-15T08:15:17.621Z,6.20
2018-05-15T08:16:17.801Z,6.50
2018-05-15T08:17:17.937Z,5.40
2018-05-15T08:18:18.094Z,4.90
2018-05-15T08:19:18.251Z,7.60
2018-05-15T08:20:18.409Z,8.10
2018-05-15T08:21:18.568Z,7.90
2018-05-15T08:22:18.761Z,5.90
2018-05-15T08:23:18.881Z,6.40
2018-05-15T08:24:19.039Z,7.20
2018-05-15T08:25:19.209Z,8.10
2018-05-15T08:26:19.356Z,7.40
2018-05-15T08:27:19.515Z,8.50
2018-05-15T08:28:19.674Z,10.10
2018-05-15T08:29:19.839Z,7.80
2018-05-15T08:30:19.991Z,4.70
2018-05-15T08:31:20.171Z,6.50
2018-05-15T08:32:20.329Z,6.00
2018-05-15T08:33:20.486Z,5.20
2018-05-15T08:34:20.644Z,4.70
2018-05-15T08:35:20.802Z,4.20
2018-05-15T08:36:20.964Z,6.10
2018-05-15T08:37:21.176Z,5.00
2018-05-15T08:38:21.275Z,6.30
2018-05-15T08:39:21.433Z,7.50
2018-05-15T08:40:21.591Z,6.50
2018-05-15T08:41:21.750Z,6.20
2018-05-15T08:42:21.908Z,5.80
2018-05-15T08:43:22.067Z,6.50
2018-05-15T08:44:22.226Z,6.90
2018-05-15T08:45:22.403Z,7.40
2018-05-15T08:46:22.541Z,5.90
2018-05-15T08:47:22.699Z,7.70
2018-05-15T08:48:22.858Z,7.40
2018-05-15T08:49:23.017Z,16.10
2018-05-15T08:50:23.174Z,9.40
2018-05-15T08:51:23.341Z,9.00
2018-05-15T08:52:23.495Z,5.10
2018-05-15T08:53:23.653Z,5.70
2018-05-15T08:54:23.811Z,7.90
2018-05-15T08:55:23.971Z,7.60
2018-05-15T08:56:24.127Z,6.90
2018-05-15T08:57:24.288Z,7.70
2018-05-15T08:58:24.448Z,8.10
2018-05-15T08:59:24.610Z,10.80
2018-05-15T09:00:24.770Z,6.10
2018-05-15T09:01:24.921Z,5.80
2018-05-15T09:02:25.080Z,6.20
2018-05-15T09:03:25.243Z,4.50
2018-05-15T09:04:25.401Z,5.30
2018-05-15T09:05:25.558Z,5.10
2018-05-15T09:06:25.717Z,7.40
2018-05-15T09:07:25.874Z,6.90
2018-05-15T09:08:26.036Z,6.50
2018-05-15T09:09:26.201Z,6.20
2018-05-15T09:10:26.432Z,7.30
2018-05-15T09:11:26.513Z,6.20
2018-05-15T09:12:26.673Z,5.80
2018-05-15T09:13:26.835Z,5.90
2018-05-15T09:14:26.993Z,9.60
2018-05-15T09:15:27.150Z,9.60
2018-05-15T09:16:27.310Z,8.00
2018-05-15T09:17:27.470Z,7.70
2018-05-15T09:18:27.631Z,8.60
2018-05-15T09:19:27.791Z,9.10
2018-05-15T09:20:27.953Z,8.60
2018-05-15T09:21:28.112Z,7.70
2018-05-15T09:22:28.274Z,11.40
2018-05-15T09:23:28.433Z,14.50
2018-05-15T09:24:28.591Z,10.00
2018-05-15T09:25:28.750Z,10.40
2018-05-15T09:26:28.930Z,9.40
2018-05-15T09:27:29.070Z,7.80
2018-05-15T09:28:29.229Z,6.80
2018-05-15T09:29:29.389Z,7.00
2018-05-15T09:30:29.546Z,5.20
2018-05-15T09:31:29.712Z,5.30
2018-05-15T09:32:29.866Z,5.80
2018-05-15T09:33:30.025Z,5.80
2018-05-15T09:34:30.188Z,7.80
2018-05-15T09:35:30.345Z,5.10
2018-05-15T09:36:30.556Z,7.10
2018-05-15T09:37:30.663Z,6.50
2018-05-15T09:38:30.825Z,6.10
2018-05-15T09:39:30.988Z,6.30
2018-05-15T09:40:31.145Z,5.30
2018-05-15T09:41:31.303Z,6.10
2018-05-15T09:42:31.462Z,6.00
2018-05-15T09:43:31.698Z,8.80
2018-05-15T09:44:31.784Z,6.20
2018-05-15T09:45:31.945Z,5.60
2018-05-15T09:46:32.103Z,5.70
2018-05-15T09:47:32.263Z,5.30
2018-05-15T09:48:32.424Z,4.40
2018-05-15T09:49:32.583Z,5.30
2018-05-15T09:50:32.748Z,5.50
2018-05-15T09:51:32.908Z,5.80
2018-05-15T09:52:33.063Z,8.50
2018-05-15T09:53:33.223Z,7.40
2018-05-15T09:54:33.383Z,5.40
2018-05-15T09:55:33.543Z,6.10
2018-05-15T09:56:33.702Z,5.20
2018-05-15T09:57:33.861Z,6.40
2018-05-15T09:58:34.021Z,5.80
2018-05-15T09:59:34.180Z,5.60
2018-05-15T10:00:34.341Z,5.20
2018-05-15T10:01:34.501Z,7.80
2018-05-15T10:02:34.663Z,4.40
2018-05-15T10:03:34.822Z,4.90
2018-05-15T10:04:34.983Z,5.90
2018-05-15T10:05:35.148Z,7.60
2018-05-15T10:06:35.306Z,5.40
2018-05-15T10:07:35.520Z,5.30
2018-05-15T10:08:35.625Z,5.20
2018-05-15T10:09:35.789Z,5.80
2018-05-15T10:10:35.949Z,8.70
2018-05-15T10:11:36.110Z,5.20
2018-05-15T10:12:36.496Z,5.60
2018-05-15T10:13:36.432Z,5.30
2018-05-15T10:14:36.594Z,5.40
2018-05-15T10:15:36.756Z,5.10
2018-05-15T10:16:36.915Z,4.50
2018-05-15T10:17:37.077Z,6.70
2018-05-15T10:18:37.238Z,4.50
2018-05-15T10:19:37.399Z,7.60
2018-05-15T10:20:37.561Z,5.00
2018-05-15T10:21:37.721Z,5.10
2018-05-15T10:22:37.883Z,4.80
2018-05-15T10:23:38.045Z,6.80
2018-05-15T10:24:38.205Z,4.60
2018-05-15T10:25:38.366Z,8.40
2018-05-15T10:26:38.527Z,4.90
2018-05-15T10:27:38.687Z,5.20
2018-05-15T10:28:38.848Z,5.40
2018-05-15T10:29:39.010Z,6.40
2018-05-15T10:30:39.168Z,5.60
2018-05-15T10:31:39.332Z,6.90
2018-05-15T10:32:39.491Z,6.60
2018-05-15T10:33:39.653Z,7.20
2018-05-15T10:34:39.814Z,5.20
2018-05-15T10:35:39.975Z,6.10
2018-05-15T10:36:40.137Z,4.20
2018-05-15T10:37:40.298Z,5.10
2018-05-15T10:38:40.458Z,5.60
2018-05-15T10:39:40.619Z,4.50
2018-05-15T10:40:40.779Z,5.20
2018-05-15T10:41:40.941Z,5.10
2018-05-15T10:42:41.104Z,5.80
2018-05-15T10:43:41.261Z,6.80
2018-05-15T10:44:41.423Z,7.40
2018-05-15T10:45:41.584Z,5.60
2018-05-15T10:46:41.745Z,5.40
2018-05-15T10:47:41.908Z,5.50
2018-05-15T10:48:42.070Z,6.20
2018-05-15T10:49:42.230Z,5.90
2018-05-15T10:50:42.398Z,4.90
2018-05-15T10:51:42.551Z,7.30
2018-05-15T10:52:42.715Z,5.40
2018-05-15T10:53:42.875Z,5.10
2018-05-15T10:54:43.038Z,6.40
2018-05-15T10:55:43.198Z,6.40
2018-05-15T10:56:43.357Z,5.20
2018-05-15T10:57:43.518Z,4.80
2018-05-15T10:58:43.680Z,5.00
2018-05-15T10:59:43.841Z,5.00
2018-05-15T11:00:44.001Z,5.90
2018-05-15T11:01:44.176Z,6.20
2018-05-15T11:02:44.327Z,6.90
2018-05-15T11:03:44.488Z,6.90
2018-05-15T11:04:44.651Z,7.00
2018-05-15T11:05:44.820Z,6.50
2018-05-15T11:06:44.976Z,8.60
2018-05-15T11:07:45.140Z,5.40
2018-05-15T11:08:45.301Z,5.20
2018-05-15T11:09:45.463Z,5.20
2018-05-15T11:10:45.696Z,5.90
2018-05-15T11:11:45.786Z,6.50
2018-05-15T11:12:46.002Z,6.00
2018-05-15T11:13:46.109Z,6.70
2018-05-15T11:14:46.269Z,7.00
2018-05-15T11:15:46.512Z,7.40
2018-05-15T11:16:46.599Z,6.80
2018-05-15T11:17:46.756Z,6.10
2018-05-15T11:18:46.948Z,8.70
2018-05-15T11:19:47.079Z,6.10
2018-05-15T11:20:47.241Z,6.80
2018-05-15T11:21:47.401Z,7.40
2018-05-15T11:22:47.563Z,6.50
2018-05-15T11:23:47.723Z,6.10
2018-05-15T11:24:47.888Z,4.80
2018-05-15T11:25:48.044Z,5.40
2018-05-15T11:26:48.210Z,7.20
2018-05-15T11:27:48.367Z,8.70
2018-05-15T11:28:48.528Z,7.40
2018-05-15T11:29:48.769Z,5.70
2018-05-15T11:30:48.846Z,9.50
2018-05-15T11:31:49.009Z,5.70
2018-05-15T11:32:49.169Z,6.70
2018-05-15T11:33:49.329Z,6.50
2018-05-15T11:34:49.486Z,6.00
2018-05-15T11:35:49.689Z,4.70
2018-05-15T11:36:49.806Z,6.30
2018-05-15T11:37:49.966Z,5.40
2018-05-15T11:38:50.126Z,8.30
2018-05-15T11:39:50.315Z,5.50
2018-05-15T11:40:50.480Z,8.00
2018-05-15T11:41:50.715Z,8.60
2018-05-15T11:42:50.791Z,11.00
2018-05-15T11:43:50.948Z,9.80
2018-05-15T11:44:51.107Z,12.30
2018-05-15T11:45:51.264Z,9.40
2018-05-15T11:46:51.422Z,8.70
2018-05-15T11:47:51.846Z,7.10
2018-05-15T11:48:52.380Z,10.60
2018-05-15T11:49:52.467Z,7.80
2018-05-15T11:50:53.049Z,8.80
2018-05-15T11:51:52.896Z,8.10
2018-05-15T11:52:53.071Z,8.00
2018-05-15T11:53:52.568Z,6.90
2018-05-15T11:54:52.683Z,7.00
2018-05-15T11:55:52.884Z,8.30
2018-05-15T11:56:52.999Z,7.40
2018-05-15T11:57:53.223Z,8.40
2018-05-15T11:58:53.315Z,8.00
2018-05-15T11:59:53.560Z,7.80
2018-05-15T12:00:53.632Z,8.20
2018-05-15T12:01:53.792Z,7.80
2018-05-15T12:02:53.949Z,10.20
2018-05-15T12:03:54.108Z,6.80
2018-05-15T12:04:54.264Z,8.40
2018-05-15T12:05:54.425Z,7.00
2018-05-15T12:06:54.585Z,6.00
2018-05-15T12:07:54.744Z,6.10
2018-05-15T12:08:54.900Z,7.50
2018-05-15T12:09:55.065Z,7.00
2018-05-15T12:10:55.221Z,7.20
2018-05-15T12:11:55.380Z,5.90
2018-05-15T12:12:55.630Z,7.60
2018-05-15T12:13:55.702Z,7.80
2018-05-15T12:14:55.865Z,6.40
2018-05-15T12:15:56.024Z,10.30
2018-05-15T12:16:56.183Z,6.50
2018-05-15T12:17:56.344Z,5.90
2018-05-15T12:18:56.507Z,8.30
2018-05-15T12:19:56.668Z,5.60
2018-05-15T12:20:56.829Z,7.10
2018-05-15T12:21:56.991Z,7.70
2018-05-15T12:22:57.149Z,10.70
2018-05-15T12:23:57.316Z,5.90
2018-05-15T12:24:57.476Z,6.70
2018-05-15T12:25:57.682Z,7.20
2018-05-15T12:26:57.800Z,5.40
2018-05-15T12:27:57.977Z,7.80
2018-05-15T12:28:58.122Z,7.70
2018-05-15T12:29:58.361Z,5.80
2018-05-15T12:30:58.444Z,10.20
2018-05-15T12:31:58.602Z,7.40
2018-05-15T12:32:58.765Z,7.40
2018-05-15T12:33:58.923Z,9.30
2018-05-15T12:34:59.095Z,9.00
2018-05-15T12:35:59.253Z,8.10
2018-05-15T12:36:59.418Z,7.70
2018-05-15T12:37:59.576Z,7.60
2018-05-15T12:38:59.735Z,6.60
2018-05-15T12:39:59.898Z,7.30
2018-05-15T12:41:00.055Z,8.50
2018-05-15T12:42:00.377Z,8.70
2018-05-15T12:43:00.377Z,9.80
2018-05-15T12:44:00.543Z,8.00
2018-05-15T12:45:00.702Z,6.20
2018-05-15T12:46:00.861Z,7.20
2018-05-15T12:47:01.023Z,9.20
2018-05-15T12:48:01.189Z,9.80
2018-05-15T12:49:01.347Z,8.20
2018-05-15T12:50:01.508Z,8.40
2018-05-15T12:51:01.667Z,7.50
2018-05-15T12:52:01.830Z,8.40
2018-05-15T12:53:01.992Z,8.80
2018-05-15T12:54:02.177Z,8.90
2018-05-15T12:55:02.314Z,5.10
2018-05-15T12:56:02.477Z,6.00
2018-05-15T12:57:02.636Z,5.50
2018-05-15T12:58:02.797Z,5.70
2018-05-15T12:59:02.958Z,7.70
2018-05-15T13:00:03.120Z,6.90
2018-05-15T13:01:03.280Z,6.60
2018-05-15T13:02:03.440Z,5.10
2018-05-15T13:03:03.603Z,6.20
2018-05-15T13:04:03.764Z,5.30
2018-05-15T13:05:03.925Z,7.40
2018-05-15T13:06:04.086Z,5.50
2018-05-15T13:07:04.248Z,5.10
2018-05-15T13:08:04.409Z,5.40
2018-05-15T13:09:04.570Z,4.70
2018-05-15T13:10:04.732Z,4.80
2018-05-15T13:11:04.892Z,6.10
2018-05-15T13:12:05.051Z,5.90
2018-05-15T13:13:05.210Z,8.00
2018-05-15T13:14:05.372Z,7.50
2018-05-15T13:15:05.534Z,11.20